松山國際航空站 - ATIS

METAR RCSS 200330Z 28007KT 8000 -RA FEW012 BKN025 BKN040 24/21 Q1007 NOSIG RMK A2974(S)=

站台狀態:Online
最後更新:2019-09-20 11:30:02